Date,TemperatureHighF,TemperatureAvgF,TemperatureLowF,DewpointHighF,DewpointAvgF,DewpointLowF,HumidityHigh,HumidityAvg,HumidityLow,PressureMaxIn,PressureMinIn,WindSpeedMaxMPH,WindSpeedAvgMPH,GustSpeedMaxMPH,PrecipitationSumIn
2013-1-1,40,36,32,17,12,8,50,38,30,28.94,28.85,8,0,8,0.00
2013-1-2,36,28,22,9,1,-6,41,31,22,29.12,28.91,12,1,12,0.00
2013-1-3,33,28,22,5,3,1,39,34,30,29.12,29.09,0,0,0,0.00
2013-1-4,37,32,29,7,4,2,36,30,24,29.09,29.00,24,1,27,0.00
2013-1-5,44,34,26,13,6,3,42,31,20,29.26,29.03,8,0,8,0.00
2013-1-6,43,37,32,17,12,8,48,35,25,29.09,28.94,9,0,10,0.00
2013-1-7,42,35,26,16,9,4,54,35,23,29.35,29.09,7,0,8,0.00
2013-1-8,55,34,22,24,16,7,84,52,19,29.29,29.20,6,0,6,0.00
2013-1-9,54,38,28,27,20,13,78,51,28,29.32,29.14,13,1,13,0.00
2013-1-10,54,43,34,16,11,7,42,28,18,29.50,29.32,10,0,10,0.00
2013-1-11,45,42,39,40,23,10,86,53,28,29.35,29.03,6,0,6,0.00
2013-1-12,63,49,42,51,39,31,85,73,31,29.09,29.00,4,0,4,0.00
2013-1-13,55,51,48,50,44,37,84,78,52,29.03,28.88,3,0,3,0.00
2013-1-14,59,48,38,54,29,12,84,52,29,29.26,28.88,10,1,10,0.00
2013-1-15,39,38,35,35,29,16,87,74,41,29.29,29.06,4,0,4,0.00
2013-1-16,44,39,36,39,31,14,87,75,33,29.06,28.79,10,0,10,0.16
2013-1-17,41,37,33,21,14,7,57,39,26,29.06,28.91,11,0,11,0.16
2013-1-18,37,30,24,16,2,-4,50,30,22,29.35,29.03,12,1,12,0.00
2013-1-19,60,40,22,18,8,0,56,29,17,29.23,28.82,12,2,12,0.00
2013-1-20,52,43,28,11,5,-5,28,21,18,29.00,28.73,15,1,15,0.00
2013-1-21,43,29,19,5,-2,-11,32,25,20,29.00,28.73,13,2,15,0.00
2013-1-22,19,13,8,-11,-15,-19,27,27,25,29.14,28.88,20,4,20,0.00
2013-1-23,22,14,6,-1,-14,-21,45,27,25,29.17,28.97,11,1,13,0.00
2013-1-24,25,17,12,5,-5,-16,62,39,24,29.35,28.94,15,2,15,0.00
2013-1-25,19,15,11,8,-6,-17,67,40,26,29.35,28.91,8,0,8,0.00
2013-1-26,32,24,15,14,8,0,74,50,32,29.32,28.91,10,0,10,0.00
2013-1-27,39,27,16,9,3,0,53,36,22,29.41,29.29,5,0,6,0.00
2013-1-28,56,38,28,48,28,5,87,70,36,29.29,28.97,12,1,12,0.33
2013-1-29,70,59,53,48,39,31,79,49,24,29.06,28.88,10,1,10,0.33
2013-1-30,70,59,52,55,46,33,83,63,33,28.88,28.26,14,2,14,1.16
2013-1-31,57,36,26,51,12,-4,83,38,25,30.00,28.20,24,3,26,0.13
2013-2-1,27,20,13,15,-5,-14,67,33,24,29.23,28.70,14,2,15,0.00
2013-2-2,27,18,8,15,-6,-18,75,36,23,29.23,28.88,7,1,8,0.00
2013-2-3,34,27,22,22,12,-2,82,57,31,28.91,28.70,10,0,10,0.00
2013-2-4,34,28,21,27,7,-4,85,46,22,28.94,28.79,10,0,11,0.00
2013-2-5,38,34,31,34,26,15,87,74,40,28.88,28.76,8,0,10,0.00
2013-2-6,36,33,25,25,13,7,66,43,31,29.23,28.85,8,0,8,0.00
2013-2-7,37,32,24,13,8,6,60,38,29,29.26,29.09,11,0,11,0.00
2013-2-8,39,34,30,33,19,5,82,55,34,29.09,28.73,16,0,16,0.00
2013-2-9,38,29,24,7,2,-4,42,30,22,29.29,28.94,13,1,13,0.00
2013-2-10,49,32,18,8,4,2,61,34,19,29.29,29.09,6,1,6,0.00
2013-2-11,66,48,36,44,24,3,86,50,16,29.09,28.64,17,2,18,0.00
2013-2-12,56,44,35,16,7,1,30,22,18,28.94,28.76,13,2,13,0.00
2013-2-13,43,35,28,33,18,6,87,54,26,28.85,28.58,5,0,5,0.00
2013-2-14,48,37,29,34,15,8,86,43,22,28.91,28.70,9,1,9,0.00
2013-2-15,50,38,30,34,21,9,86,55,22,28.91,28.85,10,0,10,0.00
2013-2-16,36,31,24,32,7,-6,86,39,23,28.91,28.79,8,0,8,0.00
2013-2-17,25,22,19,5,-4,-11,50,32,24,29.12,28.76,14,1,14,0.00
2013-2-18,46,28,13,7,-4,-12,36,25,20,29.20,29.00,10,1,11,0.00
2013-2-19,54,37,29,33,12,-2,79,38,23,29.00,28.61,16,2,16,0.00
2013-2-20,31,25,21,4,-5,-9,31,26,23,29.06,28.79,15,0,15,0.00
2013-2-21,34,25,21,2,-4,-8,38,28,23,29.23,29.00,13,1,13,0.00
2013-2-22,31,27,23,16,8,-1,57,45,31,29.23,29.03,8,0,8,0.00
2013-2-23,31,31,31,16,16,16,53,53,53,29.03,29.03,0,0,0,0.00
2013-2-24,29,29,29,2,2,1,31,30,30,29.06,29.03,0,0,0,0.00
2013-2-25,48,35,25,9,4,0,43,28,19,29.12,29.03,6,1,6,0.00
2013-2-26,40,35,30,36,18,3,86,55,30,29.09,28.61,8,1,8,0.00
2013-2-27,47,42,39,42,25,14,87,55,28,28.64,28.52,13,1,13,0.00
2013-2-28,40,37,34,17,11,8,41,34,29,28.67,28.55,9,0,9,0.00
2013-3-1,38,35,30,14,9,4,42,35,26,28.82,28.67,0,0,0,0.00
2013-3-2,33,29,26,6,3,0,42,33,28,28.82,28.73,10,0,10,0.00
2013-3-3,38,29,25,7,2,-3,43,31,21,28.88,28.76,21,1,21,0.00
2013-3-4,41,29,24,4,0,-4,36,28,21,28.97,28.85,14,1,14,0.00
2013-3-5,51,37,26,19,5,1,58,28,19,28.97,28.73,9,1,9,0.00
2013-3-6,39,36,32,33,24,10,87,65,31,29.00,28.67,8,0,8,0.00
2013-3-7,44,38,35,14,10,6,40,30,23,29.14,29.00,10,0,10,0.16
2013-3-8,44,36,32,12,10,7,42,33,25,29.29,29.09,13,1,13,0.00
2013-3-9,60,40,27,17,11,2,57,33,17,29.29,29.17,6,1,6,0.00
2013-3-10,66,47,30,21,12,4,52,27,17,29.20,29.09,9,2,9,0.00
2013-3-11,58,50,43,36,15,5,51,26,17,29.09,28.79,9,1,9,0.00
2013-3-12,56,47,38,44,25,9,76,44,29,28.94,28.67,10,1,10,0.17
2013-3-13,45,35,29,15,8,2,48,32,20,28.97,28.85,19,2,19,0.00
2013-3-14,41,32,27,4,0,-3,33,25,21,29.03,28.97,19,2,19,0.00
2013-3-15,54,41,26,15,8,0,41,26,19,29.03,28.73,15,2,15,0.00
2013-3-16,46,40,36,32,24,14,81,54,32,28.85,28.58,7,1,8,0.00
2013-3-17,39,36,33,31,15,5,84,48,26,29.14,28.85,0,0,0,0.00
2013-3-18,34,32,30,28,19,3,79,60,27,29.17,28.85,8,0,8,0.00
2013-3-19,52,41,34,36,17,1,87,47,18,28.85,28.67,19,3,19,0.25
2013-3-20,48,37,26,12,3,-5,41,24,19,28.91,28.73,22,3,22,0.25
2013-3-21,33,26,21,6,-3,-8,42,28,23,28.82,28.73,10,1,11,0.00
2013-3-22,43,32,24,5,-1,-7,31,25,20,28.94,28.76,16,2,16,0.00
2013-3-23,52,36,22,11,6,-2,49,30,18,28.94,28.85,13,2,13,0.00
2013-3-24,42,33,26,27,10,2,78,40,21,28.94,28.58,5,0,6,0.00
2013-3-25,37,35,32,33,27,18,87,74,50,28.70,28.47,6,0,6,0.16
2013-3-26,46,38,34,33,18,5,88,50,22,28.97,28.64,8,1,10,0.46
2013-3-27,44,37,33,18,12,5,53,35,23,29.09,28.94,12,0,12,0.00
2013-3-28,42,38,33,16,12,10,48,35,28,29.20,29.03,9,0,9,0.00
2013-3-29,54,46,37,15,9,4,39,22,18,29.17,29.09,12,2,12,0.00
2013-3-30,60,44,30,18,10,3,45,26,17,29.14,29.03,10,1,10,0.00
2013-3-31,48,44,38,43,27,3,85,59,20,29.06,28.70,5,0,5,0.00
2013-4-1,53,43,31,42,20,0,85,43,21,28.94,28.70,14,2,14,0.00
2013-4-2,46,35,26,6,2,-4,34,25,20,29.12,28.91,15,2,15,0.00
2013-4-3,48,35,26,8,1,-6,32,24,19,29.29,29.09,12,2,12,0.00
2013-4-4,51,36,21,10,2,-7,36,23,19,29.29,28.97,8,1,8,0.00
2013-4-5,63,48,34,20,10,1,40,22,17,29.03,28.82,15,3,15,0.00
2013-4-6,59,44,28,17,7,-1,38,22,17,29.20,29.03,8,2,8,0.00
2013-4-7,73,56,39,24,15,4,28,20,16,29.09,28.91,12,2,12,0.00
2013-4-8,80,65,51,27,24,20,36,22,15,29.03,28.91,10,1,13,0.00
2013-4-9,87,72,59,31,26,18,31,19,13,29.09,28.94,11,2,12,0.00
2013-4-10,89,77,65,32,28,21,23,16,13,29.00,28.82,14,4,14,0.00
2013-4-11,85,70,58,40,33,24,48,28,13,28.91,28.73,10,2,14,0.00
2013-4-12,76,61,50,54,38,14,83,52,16,28.82,28.58,14,2,14,0.04
2013-4-13,67,53,44,22,16,8,40,24,16,28.94,28.79,14,3,14,0.00
2013-4-14,70,53,40,23,16,8,39,24,17,29.09,28.94,10,1,10,0.00
2013-4-15,65,59,54,37,24,15,48,27,19,29.20,29.06,11,2,11,0.00
2013-4-16,83,66,55,53,36,30,71,37,16,29.20,29.06,10,2,10,0.33
2013-4-17,73,64,58,60,46,33,82,57,24,29.20,29.12,10,1,10,0.08
2013-4-18,78,66,60,51,41,33,70,42,21,29.20,28.94,11,2,11,0.08
2013-4-19,75,64,49,51,37,18,76,38,24,28.97,28.61,17,3,18,0.71
2013-4-20,57,47,37,20,12,4,42,24,17,29.32,28.82,19,3,19,0.00
2013-4-21,58,43,31,16,8,4,38,24,17,29.50,29.29,8,1,8,0.00
2013-4-22,62,48,38,19,11,5,36,23,17,29.47,29.32,9,1,9,0.00
2013-4-23,67,50,36,27,20,14,52,32,17,29.35,29.03,7,1,7,0.00
2013-4-24,80,58,43,52,31,20,77,41,15,29.03,28.70,13,2,13,0.12
2013-4-25,67,51,40,21,15,9,38,24,16,29.26,29.03,12,2,12,0.12
2013-4-26,71,53,46,24,16,10,29,23,17,29.38,29.23,5,2,6,0.00
2013-4-27,76,57,38,26,20,11,50,25,15,29.32,29.20,4,0,4,0.00
2013-4-28,59,52,49,44,31,16,76,47,25,29.20,29.06,0,0,0,0.00
2013-4-29,59,55,51,52,45,34,83,68,50,29.06,28.97,0,0,4,0.00
2013-4-30,59,56,54,53,49,38,84,76,54,29.23,29.03,4,0,4,0.00
2013-5-1,77,60,50,50,28,13,84,35,15,29.35,29.20,3,0,3,0.00
2013-5-2,77,59,44,39,26,15,74,32,15,29.35,29.26,3,0,3,0.00
2013-5-3,73,57,46,42,27,17,79,36,16,29.32,29.20,0,0,0,0.00
2013-5-4,73,56,43,34,24,16,64,32,16,29.26,29.12,2,0,2,0.00
2013-5-5,71,55,44,30,23,15,55,31,17,29.17,29.06,0,0,0,0.00
2013-5-6,59,53,45,54,39,25,83,61,38,29.12,29.03,0,0,0,0.00
2013-5-7,61,59,58,56,54,52,83,82,81,29.06,28.91,0,0,2,1.45
2013-5-8,74,59,54,55,49,34,83,74,24,28.97,28.91,0,0,0,1.45
2013-5-9,78,61,53,55,47,37,83,65,24,29.00,28.85,0,0,0,0.00
2013-5-10,87,64,54,60,51,33,84,68,16,29.00,28.85,8,0,8,0.50
2013-5-11,64,63,63,58,57,56,81,80,80,28.88,28.79,0,0,0,0.25
2013-5-13,41,41,40,16,14,13,36,34,32,29.14,29.12,0,0,0,0.25
2013-5-14,65,48,32,35,22,14,88,41,18,29.15,28.97,0,0,0,0.00
2013-5-15,95,67,47,44,34,21,64,33,11,29.03,28.73,0,0,3,0.00
2013-5-16,79,70,63,58,45,31,82,44,20,28.97,28.79,0,0,0,0.09
2013-5-17,88,70,59,58,46,28,83,50,13,29.12,28.97,0,0,0,0.09
2013-5-18,71,64,60,55,46,35,82,53,33,29.17,29.09,0,0,0,0.00
2013-5-19,67,63,60,60,57,55,82,80,70,29.17,29.06,0,0,0,0.00
2013-5-20,92,74,65,64,56,42,81,60,19,29.09,28.97,0,0,0,0.00
2013-5-21,94,76,66,66,57,41,81,58,17,29.00,28.85,0,0,0,0.00
2013-5-22,95,75,67,64,54,31,81,56,11,28.94,28.82,0,0,0,0.25
2013-5-23,83,68,64,68,60,54,81,77,40,28.91,28.76,0,0,0,0.66
2013-5-24,65,52,43,58,33,18,82,51,30,29.17,28.79,5,0,5,0.66
2013-5-25,63,51,38,28,21,14,65,34,18,29.15,29.06,4,0,4,0.00
2013-5-26,74,56,42,27,22,14,53,29,16,29.23,29.14,2,0,3,0.00
2013-5-27,65,54,42,50,36,22,81,54,23,29.23,29.14,0,0,0,0.00
2013-5-28,85,64,53,62,54,43,83,72,30,29.17,29.06,0,0,0,0.13
2013-5-29,67,66,65,61,60,59,81,81,80,29.06,29.06,0,0,0,0.00
2013-5-30,74,74,73,53,53,52,48,48,47,29.14,29.14,0,0,0,0.00
2013-5-31,99,77,63,60,46,30,80,39,10,29.14,29.03,0,0,0,0.00
2013-6-1,93,76,66,62,53,39,78,48,17,29.06,28.91,3,0,3,0.00
2013-6-2,82,73,67,60,53,45,79,50,30,28.91,28.85,0,0,0,0.00
2013-6-3,79,68,60,65,54,43,81,64,32,29.00,28.85,0,0,0,0.00
2013-6-4,82,62,48,46,35,25,71,40,14,29.14,29.00,0,0,0,0.00
2013-6-5,84,65,51,50,42,32,85,49,16,29.14,29.03,0,0,0,0.00
2013-6-6,68,63,59,60,54,42,82,72,45,29.03,28.85,0,0,0,0.00
2013-6-7,69,67,65,62,60,59,80,80,79,28.88,28.67,0,0,0,0.00
2013-6-8,82,67,61,60,53,40,82,65,23,29.12,28.76,0,0,0,0.00
2013-6-9,85,70,60,63,56,48,83,65,30,29.17,29.09,0,0,0,0.00
2013-6-10,77,70,67,70,64,61,81,79,68,29.12,28.82,0,0,0,0.45
2013-6-11,79,69,65,62,58,52,81,69,39,28.91,28.79,0,0,0,0.45
2013-6-12,89,74,66,64,58,45,81,60,25,28.91,28.82,0,0,0,0.00
2013-6-13,76,69,64,65,58,41,81,70,42,28.88,28.55,0,0,0,0.50
2013-6-14,83,67,59,49,41,27,67,43,14,29.03,28.67,0,0,0,0.00
2013-6-15,88,68,58,53,41,25,80,43,13,29.12,29.00,0,0,0,0.00
2013-6-16,82,68,60,56,50,36,75,53,29,29.06,28.91,0,0,0,0.00
2013-6-17,88,74,66,61,53,41,75,53,20,29.00,28.91,0,0,0,0.09
2013-6-18,72,69,65,66,61,50,81,75,58,28.97,28.85,0,0,0,0.12
2013-6-19,85,67,61,61,52,34,82,63,19,29.14,28.91,0,0,0,0.12
2013-6-20,85,69,60,61,54,47,83,63,28,29.23,29.14,0,0,0,0.04
2013-6-21,92,72,61,61,52,40,82,56,17,29.29,29.20,0,0,0,0.00
2013-6-22,94,74,61,60,52,40,82,52,16,29.26,29.12,0,0,0,0.00
2013-6-23,94,75,66,65,58,44,81,58,19,29.20,29.09,0,0,0,0.00
2013-6-24,87,74,67,65,58,46,80,60,24,29.17,29.06,0,0,0,0.00
2013-6-25,97,79,68,63,54,37,78,50,14,29.06,28.94,0,0,0,0.00
2013-6-26,87,77,70,63,57,48,79,53,27,28.94,28.85,0,0,0,0.00
2013-6-27,80,73,68,68,63,57,81,71,49,28.88,28.67,0,0,0,1.17
2013-6-28,88,73,66,64,57,44,81,61,23,28.70,28.55,3,0,3,1.17
2013-6-29,90,72,63,65,53,37,81,57,18,28.73,28.55,0,0,0,0.08
2013-6-30,92,72,66,68,62,47,81,72,22,28.88,28.73,0,0,0,0.08
2013-7-1,85,74,70,68,63,54,81,71,35,28.97,28.85,0,0,0,0.00
2013-7-2,85,75,70,69,64,52,80,70,34,29.14,28.97,0,0,0,0.08
2013-7-3,87,75,70,68,63,56,79,68,36,29.23,29.12,0,0,0,0.00
2013-7-4,92,78,70,68,62,50,81,61,29,29.23,29.14,0,0,0,0.04
2013-7-5,93,79,70,67,59,49,80,55,24,29.20,29.12,0,0,0,0.04
2013-7-6,99,80,70,67,58,43,80,54,16,29.20,29.09,0,0,0,0.00
2013-7-7,88,74,68,65,60,48,81,64,30,29.14,29.06,2,0,2,0.63
2013-7-8,90,74,68,67,57,41,81,61,19,29.14,29.06,0,0,0,0.63
2013-7-9,88,74,69,67,63,55,80,69,34,29.12,29.03,0,0,0,0.04
2013-7-10,91,77,70,70,64,55,80,65,35,29.06,28.88,0,0,0,0.37
2013-7-11,86,73,67,64,59,49,81,64,30,29.00,28.88,0,0,0,0.09
2013-7-12,73,69,66,66,62,58,82,80,73,29.09,28.94,0,0,0,0.25
2013-7-13,85,73,68,66,62,49,82,70,32,29.29,29.09,0,0,0,0.00
2013-7-14,94,78,72,70,60,42,81,59,18,29.35,29.26,0,0,0,0.00
2013-7-15,102,78,69,68,59,44,82,57,15,29.35,29.23,0,0,0,0.04
2013-7-16,100,80,72,68,60,44,80,56,16,29.32,29.20,0,0,0,0.00
2013-7-17,96,80,72,67,62,50,77,56,23,29.29,29.14,0,0,0,0.00
2013-7-18,102,83,74,70,62,44,80,55,15,29.17,29.06,0,0,0,0.00
2013-7-19,100,80,71,67,61,45,79,57,16,29.06,28.91,2,0,2,0.00
2013-7-20,88,78,71,63,58,49,76,51,29,28.94,28.85,0,0,2,0.00
2013-7-21,84,74,69,67,61,51,81,65,35,29.00,28.94,0,0,0,0.00
2013-7-22,84,73,68,70,64,54,82,75,38,29.00,28.82,0,0,0,1.37
2013-7-23,91,75,67,68,62,44,80,68,22,28.82,28.73,0,0,0,0.12
2013-7-24,84,71,62,65,51,34,81,56,19,28.97,28.73,0,0,0,0.12
2013-7-25,88,66,56,50,42,27,73,46,13,29.06,28.97,0,0,0,0.00
2013-7-26,90,68,57,59,46,29,83,52,14,29.12,29.03,0,0,0,0.00
2013-7-27,75,68,62,63,59,47,81,73,46,29.06,28.91,0,0,0,0.00
2013-7-28,90,72,67,64,52,34,81,54,15,29.03,28.88,0,0,0,0.04
2013-7-29,83,67,57,52,41,30,75,43,16,29.17,29.00,0,0,0,0.00
2013-7-30,86,68,57,57,44,34,82,48,18,29.23,29.14,0,0,0,0.00
2013-7-31,82,68,61,64,54,45,81,63,29,29.17,29.00,0,0,0,0.05
2013-8-1,88,72,67,68,59,42,81,66,22,29.03,28.85,0,0,0,0.05
2013-8-2,87,73,65,61,47,31,81,48,16,29.00,28.91,0,0,0,0.04
2013-8-3,72,69,66,63,56,41,81,66,34,29.00,28.94,0,0,0,0.08
2013-8-4,80,68,61,61,47,28,82,54,17,29.06,28.97,0,0,0,0.00
2013-8-5,87,67,56,55,40,26,81,45,13,29.12,29.03,0,0,0,0.00
2013-8-6,85,68,60,57,47,36,70,50,21,29.09,29.00,0,0,0,0.00
2013-8-7,84,73,68,65,59,50,81,65,33,29.06,29.00,0,0,0,0.37
2013-8-8,80,73,70,72,66,61,81,77,56,29.06,28.97,0,0,0,0.25
2013-8-9,86,75,72,71,66,54,80,75,36,29.00,28.91,0,0,0,0.71
2013-8-10,92,74,68,69,60,39,79,66,17,29.09,29.00,0,0,0,0.71
2013-8-11,91,74,68,68,60,42,81,64,19,29.12,29.03,0,0,0,0.00
2013-8-12,94,75,69,67,57,36,80,58,14,29.09,28.94,0,0,0,0.00
2013-8-13,88,73,66,66,58,42,80,63,22,28.94,28.79,0,0,0,0.70
2013-8-14,74,62,52,50,38,30,80,46,21,29.12,28.91,0,0,0,0.00
2013-8-15,82,62,52,56,41,24,83,55,14,29.17,29.09,0,0,0,0.00
2013-8-16,87,64,54,56,43,30,83,52,16,29.20,29.12,0,0,0,0.00
2013-8-17,81,66,56,59,45,34,82,53,19,29.26,29.17,0,0,0,0.00
2013-8-18,73,64,61,60,54,42,82,71,33,29.26,29.17,0,0,0,0.29
2013-8-19,76,68,62,65,60,54,82,75,48,29.17,29.09,0,0,0,0.04
2013-8-20,91,73,66,67,52,30,81,56,12,29.20,29.12,0,0,0,0.04
2013-8-21,91,73,64,65,58,43,81,63,20,29.23,29.09,0,0,0,0.00
2013-8-22,91,76,69,65,51,40,79,46,18,29.12,29.00,0,0,0,0.00
2013-8-23,73,69,66,66,62,52,81,80,74,29.14,29.00,0,0,0,0.54
2013-8-24,88,68,60,62,49,28,82,57,13,29.32,29.14,0,0,0,0.54
2013-8-25,62,59,57,56,53,49,82,79,69,29.38,29.29,0,0,0,0.00
2013-8-26,92,77,61,54,45,36,77,37,14,29.26,29.06,0,0,0,0.00
2013-8-27,84,76,71,59,54,47,63,47,33,29.09,28.94,0,0,0,0.00
2013-8-28,74,73,71,67,65,58,80,77,63,28.97,28.85,0,0,0,1.04
2013-8-29,90,78,70,80,64,42,79,65,21,29.06,28.91,0,0,0,1.04
2013-8-30,94,76,68,70,57,40,80,60,16,29.06,28.88,0,0,0,0.00
2013-8-31,88,76,71,68,60,49,79,59,26,28.91,28.82,0,0,0,0.00
2013-9-1,91,76,69,68,60,43,80,62,20,28.91,28.82,0,0,0,0.00
2013-9-2,93,78,72,69,56,40,80,53,17,28.85,28.76,0,0,0,0.00
2013-9-3,85,72,63,59,44,28,76,42,16,29.00,28.79,3,0,3,0.00
2013-9-4,88,67,58,51,41,26,76,45,13,29.14,29.00,0,0,0,0.00
2013-9-5,83,68,62,48,40,27,61,38,14,29.17,29.03,3,0,3,0.00
2013-9-6,83,62,50,45,33,23,72,38,14,29.23,29.12,0,0,0,0.00
2013-9-7,89,64,52,53,40,27,82,49,13,29.14,28.97,0,0,0,0.00
2013-9-8,87,71,62,64,51,38,81,54,20,29.09,28.94,0,0,0,0.04
2013-9-9,76,66,58,58,42,32,74,42,24,29.20,29.09,0,0,0,0.00
2013-9-10,94,76,66,67,58,44,81,58,18,29.20,29.12,0,0,0,0.00
2013-9-11,96,79,71,69,59,42,80,57,16,29.20,29.06,0,0,0,0.00
2013-9-12,93,76,68,68,56,36,80,56,17,29.09,28.79,0,0,0,0.00
2013-9-13,77,64,54,60,42,26,76,46,18,29.00,28.79,0,0,0,0.00
2013-9-14,71,55,48,38,32,20,67,44,17,29.14,28.97,0,0,0,0.00
2013-9-15,81,60,47,50,40,30,84,54,17,29.17,29.06,0,0,0,0.00
2013-9-16,71,62,58,57,49,32,82,65,25,29.23,29.03,0,0,0,0.04
2013-9-17,75,56,47,46,31,19,75,44,16,29.38,29.20,0,0,0,0.04
2013-9-18,76,53,41,45,33,23,84,55,15,29.29,29.14,0,0,0,0.00
2013-9-19,75,66,58,52,44,39,75,47,28,29.14,29.06,0,0,0,0.00
2013-9-20,86,67,57,60,50,37,83,60,19,29.06,28.94,0,0,0,0.00
2013-9-21,70,66,62,61,57,53,83,74,55,28.97,28.73,0,0,0,0.83
2013-9-22,70,60,53,58,45,26,83,62,23,29.00,28.76,0,0,0,0.83
2013-9-23,69,54,47,42,31,25,67,42,22,29.09,28.97,0,0,0,0.00
2013-9-24,75,54,42,49,36,23,84,59,16,29.09,28.94,0,0,0,0.00
2013-9-25,81,57,47,52,38,23,84,56,15,29.00,28.88,0,0,0,0.00
2013-9-26,83,59,50,52,40,24,84,57,14,29.09,28.94,0,0,0,0.00
2013-9-27,75,59,49,52,44,32,84,63,22,29.20,29.06,0,0,0,0.00
2013-9-28,64,58,52,57,46,34,83,68,34,29.29,29.20,0,0,0,0.00
2013-9-29,76,58,48,55,40,27,85,59,18,29.20,29.03,0,0,0,0.00
2013-9-30,82,61,50,53,42,28,84,56,17,29.06,28.97,0,0,0,0.00
2013-10-1,80,66,59,58,46,34,82,54,21,29.09,29.00,0,0,0,0.00
2013-10-2,86,68,59,55,46,32,81,51,16,29.12,29.06,0,0,0,0.00
2013-10-3,86,68,60,59,50,37,82,58,19,29.14,29.09,0,0,0,0.00
2013-10-4,87,71,63,60,52,38,81,57,19,29.14,29.06,0,0,0,0.00
2013-10-5,89,72,63,60,50,36,81,52,18,29.14,29.03,0,0,0,0.00
2013-10-6,92,73,63,60,47,30,81,48,12,29.06,28.91,0,0,0,0.00
2013-10-7,73,62,50,62,48,28,82,62,28,29.09,28.76,2,0,2,0.71
2013-10-8,72,56,46,47,34,20,83,49,17,29.26,29.09,2,0,2,0.71
2013-10-9,60,52,45,48,34,22,84,54,24,29.32,29.23,0,0,0,0.00
2013-10-10,56,53,50,51,45,30,84,74,47,29.23,29.03,0,0,0,0.91
2013-10-11,61,58,55,56,53,50,84,84,83,29.06,28.97,0,0,0,1.08
2013-10-12,67,63,60,61,57,54,83,81,79,29.17,29.00,0,0,0,0.45
2013-10-13,62,61,60,56,55,54,83,82,82,29.29,29.17,0,0,0,0.50
2013-10-14,63,61,59,57,54,49,82,79,64,29.29,29.20,0,0,0,0.50
2013-10-15,72,62,58,60,48,32,83,65,23,29.26,29.09,0,0,0,0.00
2013-10-16,70,60,53,55,48,39,84,67,36,29.09,28.91,0,0,0,0.00
2013-10-17,68,63,53,61,56,37,82,78,55,28.94,28.70,0,0,0,0.17
2013-10-18,68,54,46,41,30,18,71,43,17,29.00,28.88,3,0,3,0.00
2013-10-19,59,49,42,48,38,24,86,67,37,29.00,28.76,3,0,3,0.00
2013-10-20,66,50,41,29,23,15,63,37,18,29.06,28.85,2,0,2,0.00
2013-10-21,75,51,37,38,28,20,86,48,16,29.09,28.91,0,0,0,0.00
2013-10-22,58,51,41,39,29,14,69,45,20,28.91,28.82,5,0,5,0.00
2013-10-23,50,41,35,35,28,23,83,61,37,28.88,28.70,2,0,2,0.00
2013-10-24,46,39,34,36,24,13,87,58,28,29.09,28.88,3,0,3,0.00
2013-10-25,50,38,32,28,21,13,81,52,26,29.26,29.09,3,0,3,0.00
2013-10-26,57,43,28,25,16,9,80,40,17,29.26,28.88,4,0,4,0.00
2013-10-27,59,47,39,26,18,11,55,33,17,29.09,28.91,5,0,5,0.00
2013-10-28,64,46,34,33,24,16,85,48,18,29.23,29.09,0,0,0,0.00
2013-10-29,66,49,36,37,27,17,85,49,17,29.35,29.23,3,0,3,0.00
2013-10-30,72,56,44,44,35,27,82,49,22,29.26,29.12,0,0,0,0.00
2013-10-31,68,60,54,56,49,39,82,68,34,29.17,28.67,2,0,2,0.04
2013-11-1,74,64,53,55,37,21,79,42,16,28.73,28.50,15,0,15,0.21
2013-11-2,60,52,43,38,31,22,68,46,24,28.85,28.64,9,0,9,0.21
2013-11-3,58,47,37,31,18,5,55,34,17,29.35,28.85,3,0,4,0.00
2013-11-4,46,36,27,12,8,2,51,31,20,29.53,29.35,2,0,2,0.00
2013-11-5,53,43,32,35,16,4,61,35,18,29.53,29.35,0,0,0,0.00
2013-11-6,72,57,44,44,35,28,84,48,22,29.35,28.97,5,0,5,0.00
2013-11-7,59,51,38,53,32,8,84,50,26,29.06,28.85,13,0,13,0.20
2013-11-8,48,38,30,22,14,5,59,38,20,29.23,29.03,9,0,9,0.20
2013-11-9,60,41,26,23,15,8,78,40,17,29.23,28.94,4,0,4,0.00
2013-11-10,58,50,39,18,12,6,31,22,18,29.17,28.91,11,0,11,0.00
2013-11-11,60,46,32,22,15,10,65,33,17,29.20,28.97,9,0,9,0.00
2013-11-12,51,36,27,28,8,-2,55,33,21,29.32,28.94,6,0,6,0.00
2013-11-13,43,32,26,8,4,-1,43,31,20,29.38,29.26,13,0,13,0.00
2013-11-14,59,42,32,17,5,-1,28,21,17,29.29,29.14,10,0,10,0.00
2013-11-15,64,43,27,21,8,-1,42,25,17,29.20,29.09,3,0,3,0.00
2013-11-16,66,50,40,46,34,16,82,59,24,29.23,29.12,3,0,3,0.00
2013-11-17,64,57,50,52,48,42,85,72,46,29.12,28.64,8,0,8,0.00
2013-11-18,63,55,45,50,15,6,68,21,17,28.91,28.64,13,0,13,0.05
2013-11-19,45,38,30,16,10,6,55,32,22,29.29,28.91,8,0,8,0.05
2013-11-20,51,34,23,21,10,0,74,40,19,29.44,29.29,3,0,3,0.00
2013-11-21,53,39,30,31,24,15,82,57,27,29.44,29.29,0,0,0,0.00
2013-11-22,57,48,40,52,36,28,83,65,40,29.29,29.00,8,0,8,0.00
2013-11-23,46,37,25,32,12,-3,62,37,21,29.17,29.00,10,0,10,0.00
2013-11-24,25,22,15,-2,-7,-10,45,28,24,29.38,29.29,8,0,8,0.00
2013-11-25,40,26,14,4,-2,-8,45,29,21,29.38,29.17,4,0,4,0.00
2013-11-26,38,34,31,34,18,-2,88,60,23,29.20,28.61,0,0,0,1.41
2013-11-27,39,33,24,36,22,1,89,66,37,28.97,28.52,8,0,8,1.41
2013-11-28,35,26,20,18,7,-1,67,44,27,29.32,28.97,14,0,14,0.00
2013-11-29,39,29,23,22,15,5,79,58,26,29.56,29.32,3,0,3,0.00
2013-11-30,34,27,21,19,13,7,88,59,33,29.56,29.20,2,0,2,0.00
2013-12-1,43,31,22,22,18,12,87,60,30,29.20,28.94,0,0,0,0.00
2013-12-2,47,38,34,25,21,16,67,52,29,28.94,28.82,0,0,0,0.00
2013-12-3,59,42,34,31,26,18,82,57,22,28.94,28.82,0,0,0,0.00
2013-12-4,58,45,36,45,33,23,88,67,26,29.03,28.91,0,0,0,0.00
2013-12-5,60,53,46,53,45,37,87,77,44,28.97,28.88,0,0,0,0.05
2013-12-6,57,45,38,52,41,35,88,86,84,29.12,28.85,3,0,3,1.57
2013-12-7,38,33,25,35,20,7,88,61,40,29.44,29.12,5,0,5,1.57
2013-12-8,29,24,22,26,15,6,89,69,47,29.44,29.20,0,0,0,0.00
2013-12-9,42,35,29,38,29,20,90,80,53,29.20,28.94,5,0,5,0.13
2013-12-10,37,32,23,32,15,0,88,54,30,29.12,28.91,8,0,8,0.13
2013-12-11,40,28,18,8,2,-2,53,33,21,29.26,29.09,8,0,10,0.00
2013-12-12,32,24,20,7,-4,-9,39,28,23,29.29,29.12,9,0,9,0.00
2013-12-13,42,30,19,14,-1,-8,50,27,21,29.20,29.09,10,0,10,0.00
2013-12-14,36,34,28,33,27,9,89,78,42,29.20,28.70,0,0,0,0.04
2013-12-15,39,34,30,36,24,9,90,68,41,28.85,28.58,9,0,9,0.00
2013-12-16,36,30,28,17,12,6,60,47,31,29.06,28.85,3,0,3,0.00
2013-12-17,44,33,28,27,23,17,85,68,38,29.00,28.82,8,0,8,0.04
2013-12-18,33,31,25,20,8,5,67,39,31,29.09,28.91,8,0,8,0.04
2013-12-19,60,38,21,19,13,8,67,41,17,29.06,28.97,10,0,10,0.04
2013-12-20,58,47,35,29,21,16,55,37,22,29.03,28.88,5,0,5,0.00
2013-12-21,70,58,49,50,36,24,66,45,23,28.91,28.79,4,0,4,0.00
2013-12-22,68,62,57,55,47,36,80,59,33,28.94,28.70,10,0,10,0.04
2013-12-23,59,48,33,54,35,8,86,62,34,29.17,28.88,10,0,10,0.21
2013-12-24,34,28,17,11,2,-10,42,32,23,29.35,29.12,11,0,11,0.00
2013-12-25,35,23,15,1,-4,-7,45,32,22,29.41,29.17,3,0,3,0.00
2013-12-26,42,30,24,12,4,0,42,33,21,29.23,29.09,10,0,10,0.00
2013-12-27,50,36,26,9,6,1,44,29,19,29.29,29.20,8,0,8,0.00
2013-12-28,59,45,34,17,8,2,30,23,17,29.23,29.03,11,0,11,0.00
2013-12-29,48,44,38,45,33,8,88,70,26,29.03,28.55,6,0,6,1.20
2013-12-30,45,35,28,29,16,6,60,46,40,29.09,28.76,4,0,10,0.00
2013-12-31,36,29,26,13,8,2,56,42,24,29.06,28.97,8,0,9,0.00
2014-1-1,31,31,30,14,13,13,50,48,47,29.03,29.03,0,0,0,0.00
2014-1-2,30,28,25,26,19,13,93,72,50,29.80,28.73,6,0,6,0.00